Time;durP1;ratioP1;P1;durP2;ratioP2;P2;SDS_P1;SDS_P2;PMS_P1;PMS_P2;Temp;Humidity;BMP_temperature;BMP_pressure;BME280_temperature;BME280_humidity;BME280_pressure;Samples;Min_cycle;Max_cycle;Signal;HPM_P1;HPM_P2
2021/03/10 00:01:32;;;;;;;21.70;15.17;;;3.40;99.90;;;;;;5000655;28;20977;-76
2021/03/10 00:03:59;;;;;;;24.43;15.13;;;3.40;99.90;;;;;;5000381;28;20207;-80
2021/03/10 00:06:25;;;;;;;24.60;16.43;;;3.40;99.90;;;;;;5000635;28;20203;-78
2021/03/10 00:08:51;;;;;;;24.20;16.20;;;3.40;99.90;;;;;;5001512;28;20211;-80
2021/03/10 00:11:17;;;;;;;26.83;17.10;;;3.40;99.90;;;;;;5000380;28;20712;-78
2021/03/10 00:13:44;;;;;;;27.27;17.07;;;3.40;99.90;;;;;;5000004;28;20209;-80
2021/03/10 00:16:10;;;;;;;29.03;16.37;;;3.40;99.90;;;;;;5000396;28;20218;-79
2021/03/10 00:18:36;;;;;;;23.87;15.63;;;3.40;99.90;;;;;;4999334;28;20214;-80
2021/03/10 00:21:04;;;;;;;20.87;15.83;;;3.40;99.90;;;;;;5002059;28;20639;-80
2021/03/10 00:23:30;;;;;;;25.77;16.40;;;3.40;99.90;;;;;;5003009;28;20211;-78
2021/03/10 00:25:56;;;;;;;22.90;15.17;;;3.40;99.90;;;;;;5002962;28;20208;-77
2021/03/10 00:28:23;;;;;;;28.03;17.63;;;3.40;99.90;;;;;;5002434;28;20196;-76
2021/03/10 00:30:49;;;;;;;29.23;17.20;;;3.40;99.90;;;;;;5002728;28;20199;-75
2021/03/10 00:33:15;;;;;;;24.37;16.20;;;3.40;99.90;;;;;;5002479;28;20521;-76
2021/03/10 00:35:41;;;;;;;26.83;15.67;;;3.40;99.90;;;;;;5001587;28;20239;-77
2021/03/10 00:38:09;;;;;;;28.63;18.00;;;3.40;99.90;;;;;;5002907;28;20207;-77
2021/03/10 00:40:35;;;;;;;25.77;16.47;;;3.50;99.90;;;;;;5002726;28;20654;-77
2021/03/10 00:43:01;;;;;;;25.70;16.43;;;3.50;99.90;;;;;;5001876;28;20211;-76
2021/03/10 00:45:27;;;;;;;27.57;17.60;;;3.50;99.90;;;;;;5001566;28;20223;-78
2021/03/10 00:47:56;;;;;;;26.40;16.57;;;3.50;99.90;;;;;;5002740;28;20355;-77
2021/03/10 00:50:22;;;;;;;25.50;17.20;;;3.60;99.90;;;;;;5001169;28;20936;-76
2021/03/10 00:52:49;;;;;;;29.07;18.53;;;3.60;99.90;;;;;;5001273;28;20210;-77
2021/03/10 00:55:18;;;;;;;27.60;17.60;;;3.60;99.90;;;;;;5002852;28;20776;-76
2021/03/10 00:57:44;;;;;;;24.73;16.70;;;3.60;99.90;;;;;;5002499;28;20203;-79
2021/03/10 01:00:13;;;;;;;30.50;17.43;;;3.60;99.90;;;;;;5002633;28;20227;-78
2021/03/10 01:02:39;;;;;;;27.50;16.93;;;3.70;99.90;;;;;;5000375;28;20659;-79
2021/03/10 01:05:07;;;;;;;32.30;18.43;;;3.70;99.90;;;;;;5003044;28;20207;-78
2021/03/10 01:07:33;;;;;;;28.73;17.80;;;3.70;99.90;;;;;;5001611;28;20218;-76
2021/03/10 01:10:00;;;;;;;25.77;15.63;;;3.70;99.90;;;;;;5000623;28;20343;-76
2021/03/10 01:12:27;;;;;;;25.73;16.30;;;3.80;99.90;;;;;;5001766;28;20674;-76
2021/03/10 01:14:53;;;;;;;24.47;16.20;;;3.80;99.90;;;;;;5001920;28;20840;-75
2021/03/10 01:17:20;;;;;;;26.13;16.30;;;3.80;99.90;;;;;;5000884;28;20253;-76
2021/03/10 01:19:46;;;;;;;25.03;15.33;;;3.80;99.90;;;;;;5001725;28;20380;-76
2021/03/10 01:22:12;;;;;;;25.60;16.93;;;3.80;99.90;;;;;;4996933;28;20207;-77
2021/03/10 01:24:38;;;;;;;24.03;15.73;;;3.90;99.90;;;;;;4983928;28;20215;-75
2021/03/10 01:27:05;;;;;;;22.10;14.13;;;3.90;99.90;;;;;;4985237;28;20266;-76
2021/03/10 01:29:33;;;;;;;24.70;13.83;;;3.90;99.90;;;;;;4984248;28;21050;-76
2021/03/10 01:31:59;;;;;;;24.77;15.30;;;3.90;99.90;;;;;;4983714;28;20200;-77
2021/03/10 01:34:26;;;;;;;20.13;13.63;;;4.00;99.90;;;;;;4984596;28;20208;-79
2021/03/10 01:36:52;;;;;;;21.87;14.33;;;4.00;99.90;;;;;;4998749;28;20215;-76
2021/03/10 01:39:19;;;;;;;22.13;15.53;;;4.00;99.90;;;;;;5004462;28;20203;-78
2021/03/10 01:41:45;;;;;;;21.53;14.13;;;4.10;99.90;;;;;;4999415;28;20232;-77
2021/03/10 01:44:14;;;;;;;18.23;13.83;;;4.10;99.90;;;;;;4994846;28;20678;-78
2021/03/10 01:46:43;;;;;;;23.03;13.83;;;4.10;99.90;;;;;;4985581;28;20393;-78
2021/03/10 01:49:09;;;;;;;19.47;13.47;;;4.20;99.90;;;;;;4984856;28;20208;-79
2021/03/10 01:51:36;;;;;;;19.20;13.93;;;4.20;99.90;;;;;;4984203;28;20214;-76
2021/03/10 01:54:03;;;;;;;23.33;14.57;;;4.30;99.90;;;;;;4985129;28;20286;-80
2021/03/10 01:56:29;;;;;;;20.83;13.30;;;4.30;99.90;;;;;;4984415;28;20196;-78
2021/03/10 01:58:56;;;;;;;21.13;14.43;;;4.40;99.90;;;;;;4984214;28;20214;-77
2021/03/10 02:01:22;;;;;;;22.07;14.63;;;4.40;99.90;;;;;;4984349;28;20695;-80
2021/03/10 02:03:50;;;;;;;20.60;14.13;;;4.40;99.90;;;;;;4993280;28;20219;-78
2021/03/10 02:06:27;;;;;;;19.10;13.63;;;4.50;99.90;;;;;;5003349;28;20608;-77
2021/03/10 02:08:58;;;;;;;23.27;13.30;;;4.50;99.90;;;;;;5004194;28;20202;-77
2021/03/10 02:11:30;;;;;;;21.93;13.67;;;4.50;99.90;;;;;;5003874;28;20204;-78
2021/03/10 02:14:09;;;;;;;21.67;14.20;;;4.50;99.90;;;;;;5020427;28;20289;-75
2021/03/10 02:16:43;;;;;;;19.43;13.13;;;4.50;99.90;;;;;;5015610;28;20207;-78
2021/03/10 02:19:33;;;;;;;20.63;13.60;;;4.50;99.90;;;;;;5003675;28;20211;-77
2021/03/10 02:22:05;;;;;;;22.57;14.43;;;4.50;99.90;;;;;;5003906;28;20539;-77
2021/03/10 02:24:42;;;;;;;19.67;13.87;;;4.50;99.90;;;;;;5003226;28;20211;-77
2021/03/10 02:27:45;;;;;;;21.57;14.23;;;4.50;99.90;;;;;;4995723;28;20203;-77
2021/03/10 02:30:15;;;;;;;20.27;13.50;;;4.50;99.90;;;;;;5003469;28;20207;-77
2021/03/10 02:32:45;;;;;;;20.13;13.10;;;4.40;99.90;;;;;;5002680;28;20211;-77
2021/03/10 02:35:12;;;;;;;20.83;13.23;;;4.40;99.90;;;;;;5003507;28;20214;-78
2021/03/10 02:37:44;;;;;;;23.73;12.97;;;4.40;99.90;;;;;;5002644;28;20215;-75
2021/03/10 02:40:13;;;;;;;19.47;12.87;;;4.40;99.90;;;;;;5003026;28;20669;-77
2021/03/10 02:42:40;;;;;;;18.60;12.93;;;4.40;99.90;;;;;;5002245;28;20233;-77
2021/03/10 02:45:09;;;;;;;19.87;12.43;;;4.40;99.90;;;;;;5003225;28;20281;-77
2021/03/10 02:47:37;;;;;;;20.77;14.20;;;4.40;99.90;;;;;;5003244;28;20557;-78
2021/03/10 02:50:05;;;;;;;18.23;13.07;;;4.40;99.90;;;;;;5021482;28;20214;-78
2021/03/10 02:52:33;;;;;;;18.57;13.00;;;4.40;99.90;;;;;;5021783;28;20211;-76
2021/03/10 02:54:59;;;;;;;20.83;13.70;;;4.40;99.90;;;;;;5022420;28;20278;-77
2021/03/10 02:57:26;;;;;;;23.10;13.87;;;4.40;99.90;;;;;;5022456;28;20207;-76
2021/03/10 02:59:53;;;;;;;20.87;13.87;;;4.30;99.90;;;;;;5003543;28;20223;-77
2021/03/10 03:02:20;;;;;;;23.00;13.67;;;4.40;99.90;;;;;;5002791;28;20428;-78
2021/03/10 03:04:47;;;;;;;20.20;14.07;;;4.30;99.90;;;;;;5003311;28;20258;-77
2021/03/10 03:07:13;;;;;;;20.07;14.47;;;4.30;99.90;;;;;;5008738;28;20214;-79
2021/03/10 03:09:39;;;;;;;20.20;14.70;;;4.30;99.90;;;;;;5021861;28;20198;-77
2021/03/10 03:12:08;;;;;;;27.63;16.37;;;4.30;99.90;;;;;;5011694;28;20262;-77
2021/03/10 03:14:38;;;;;;;22.17;14.33;;;4.40;99.90;;;;;;5003053;28;20269;-79
2021/03/10 03:17:06;;;;;;;24.47;15.43;;;4.40;99.90;;;;;;5002942;28;20318;-79
2021/03/10 03:19:34;;;;;;;23.47;15.97;;;4.40;99.90;;;;;;5002580;28;20199;-78
2021/03/10 03:22:01;;;;;;;24.83;16.53;;;4.40;99.90;;;;;;5002727;28;20211;-77
2021/03/10 03:24:29;;;;;;;27.70;17.03;;;4.40;99.90;;;;;;5000269;28;20584;-76
2021/03/10 03:26:57;;;;;;;26.93;17.30;;;4.40;99.90;;;;;;5004696;28;20207;-77
2021/03/10 03:29:25;;;;;;;29.10;17.63;;;4.40;99.90;;;;;;5009928;28;21029;-74
2021/03/10 03:31:52;;;;;;;36.17;20.97;;;4.40;99.90;;;;;;5009065;28;20206;-78
2021/03/10 03:34:19;;;;;;;29.37;18.60;;;4.40;99.90;;;;;;5021419;28;20269;-76
2021/03/10 03:36:46;;;;;;;28.50;18.77;;;4.40;99.90;;;;;;5021448;28;20210;-76
2021/03/10 03:39:15;;;;;;;28.23;18.27;;;4.40;99.90;;;;;;5020097;28;20846;-77
2021/03/10 03:41:42;;;;;;;34.87;18.80;;;4.40;99.90;;;;;;5020246;28;20967;-76
2021/03/10 03:44:08;;;;;;;35.80;20.20;;;4.40;99.90;;;;;;5020308;28;20202;-76
2021/03/10 03:46:35;;;;;;;34.47;21.17;;;4.40;99.90;;;;;;5017195;28;20207;-76
2021/03/10 03:49:03;;;;;;;31.63;19.20;;;4.40;99.90;;;;;;5001475;28;20218;-76
2021/03/10 03:51:31;;;;;;;33.57;20.37;;;4.40;99.90;;;;;;5001001;28;20906;-76
2021/03/10 03:53:59;;;;;;;36.30;21.63;;;4.40;99.90;;;;;;5020566;28;20213;-76
2021/03/10 03:56:26;;;;;;;32.40;20.07;;;4.40;99.90;;;;;;5025492;28;20202;-75
2021/03/10 03:58:53;;;;;;;34.17;21.07;;;4.40;99.90;;;;;;5024971;28;20218;-76
2021/03/10 04:01:19;;;;;;;44.87;23.33;;;4.40;99.90;;;;;;5019173;28;20226;-77
2021/03/10 04:03:46;;;;;;;43.67;26.37;;;4.40;99.90;;;;;;5019502;28;20624;-76
2021/03/10 04:06:13;;;;;;;40.73;23.43;;;4.40;99.90;;;;;;5024714;28;20225;-76
2021/03/10 04:08:41;;;;;;;47.93;26.60;;;4.50;99.90;;;;;;5005893;28;20215;-75
2021/03/10 04:11:09;;;;;;;49.63;29.43;;;4.50;99.90;;;;;;5023791;28;20221;-75
2021/03/10 04:13:35;;;;;;;59.07;31.30;;;4.50;99.90;;;;;;5023871;28;20194;-76
2021/03/10 04:16:02;;;;;;;56.30;30.50;;;4.50;99.90;;;;;;5020682;28;20207;-75
2021/03/10 04:18:29;;;;;;;59.87;32.30;;;4.60;99.90;;;;;;5005449;28;20207;-75
2021/03/10 04:20:55;;;;;;;56.73;33.13;;;4.60;99.90;;;;;;5014931;28;20292;-76
2021/03/10 04:23:21;;;;;;;61.97;34.97;;;4.60;99.90;;;;;;5024793;28;20253;-75
2021/03/10 04:25:47;;;;;;;62.70;34.37;;;4.70;99.90;;;;;;5014172;28;20215;-78
2021/03/10 04:28:15;;;;;;;64.13;33.63;;;4.70;99.90;;;;;;5025055;28;20203;-76
2021/03/10 04:30:41;;;;;;;64.83;36.00;;;4.70;99.90;;;;;;5020197;28;20537;-75
2021/03/10 04:33:08;;;;;;;64.40;33.60;;;4.70;99.90;;;;;;5005247;28;20273;-76
2021/03/10 04:35:34;;;;;;;67.30;36.10;;;4.70;99.90;;;;;;5023934;28;20225;-78
2021/03/10 04:38:00;;;;;;;70.80;38.50;;;4.70;99.90;;;;;;5014778;28;20210;-76
2021/03/10 04:40:26;;;;;;;67.23;37.10;;;4.80;99.90;;;;;;5004950;28;20224;-79
2021/03/10 04:42:53;;;;;;;70.47;37.83;;;4.80;99.90;;;;;;5005690;28;20230;-76
2021/03/10 04:45:20;;;;;;;71.87;39.80;;;4.80;99.90;;;;;;5005486;28;20211;-80
2021/03/10 04:47:47;;;;;;;74.23;39.43;;;4.80;99.90;;;;;;5005120;28;20608;-78
2021/03/10 04:50:15;;;;;;;76.40;39.07;;;4.80;99.90;;;;;;5010781;28;20211;-75
2021/03/10 04:52:42;;;;;;;77.03;41.07;;;4.80;99.90;;;;;;5004670;28;20235;-76
2021/03/10 04:55:10;;;;;;;74.07;39.07;;;4.80;99.90;;;;;;5004231;28;20218;-77
2021/03/10 04:57:38;;;;;;;72.33;39.80;;;4.80;99.90;;;;;;5003885;28;20207;-76
2021/03/10 05:00:07;;;;;;;76.37;41.63;;;4.80;99.90;;;;;;4990063;28;20223;-75
2021/03/10 05:02:35;;;;;;;67.57;38.50;;;4.80;99.90;;;;;;5004560;28;20592;-76
2021/03/10 05:05:02;;;;;;;73.23;39.60;;;4.80;99.90;;;;;;5005707;28;20222;-80
2021/03/10 05:07:28;;;;;;;73.03;39.37;;;4.80;99.90;;;;;;5003780;28;20219;-76
2021/03/10 05:09:54;;;;;;;74.07;40.63;;;4.70;99.90;;;;;;5012340;28;20999;-77
2021/03/10 05:12:20;;;;;;;73.80;40.10;;;4.80;99.90;;;;;;5023324;28;20522;-76
2021/03/10 05:14:47;;;;;;;73.10;40.67;;;4.80;99.90;;;;;;5024372;28;20202;-76
2021/03/10 05:17:13;;;;;;;76.57;39.50;;;4.80;99.90;;;;;;5023942;28;20203;-76
2021/03/10 05:19:40;;;;;;;77.67;40.70;;;4.80;99.90;;;;;;5023735;28;20244;-79
2021/03/10 05:22:06;;;;;;;70.77;40.03;;;4.80;99.90;;;;;;5014676;28;20215;-76
2021/03/10 05:24:33;;;;;;;78.13;41.10;;;4.80;99.90;;;;;;5003326;28;20207;-77
2021/03/10 05:26:59;;;;;;;75.03;40.07;;;4.80;99.90;;;;;;5004686;28;20503;-76
2021/03/10 05:29:25;;;;;;;81.57;43.13;;;4.80;99.90;;;;;;5005178;28;20947;-77
2021/03/10 05:31:51;;;;;;;79.57;42.60;;;4.80;99.90;;;;;;5009737;28;20199;-76
2021/03/10 05:34:18;;;;;;;75.87;41.07;;;4.80;99.90;;;;;;5024205;28;20210;-75
2021/03/10 05:36:45;;;;;;;74.43;42.93;;;4.80;99.90;;;;;;5021095;28;20199;-78
2021/03/10 05:39:12;;;;;;;76.40;42.90;;;4.80;99.90;;;;;;5004753;28;20207;-75
2021/03/10 05:41:39;;;;;;;81.50;43.27;;;4.80;99.90;;;;;;5003266;28;20977;-77
2021/03/10 05:44:06;;;;;;;80.43;44.30;;;4.80;99.90;;;;;;5003065;28;20208;-76
2021/03/10 05:46:32;;;;;;;83.53;42.27;;;4.80;99.90;;;;;;5004368;28;20215;-77
2021/03/10 05:48:59;;;;;;;75.67;42.83;;;4.80;99.90;;;;;;5004144;28;20242;-77
2021/03/10 05:51:25;;;;;;;75.53;41.03;;;4.80;99.90;;;;;;5002991;28;20608;-76
2021/03/10 05:53:53;;;;;;;78.60;43.50;;;4.80;99.90;;;;;;5003739;28;20250;-77
2021/03/10 05:56:19;;;;;;;77.30;42.17;;;4.80;99.90;;;;;;5003726;28;20564;-77
2021/03/10 05:58:54;;;;;;;79.90;42.80;;;4.80;99.90;;;;;;5002787;28;20542;-77
2021/03/10 06:01:20;;;;;;;80.80;43.50;;;4.80;99.90;;;;;;5003938;28;20262;-76
2021/03/10 06:03:52;;;;;;;75.90;42.83;;;4.90;99.90;;;;;;5003592;28;20656;-76
2021/03/10 06:06:19;;;;;;;75.77;44.87;;;4.90;99.90;;;;;;5003202;28;20210;-79
2021/03/10 06:08:45;;;;;;;81.30;44.07;;;4.90;99.90;;;;;;5002922;28;20200;-77
2021/03/10 06:11:22;;;;;;;79.67;46.60;;;4.90;99.90;;;;;;5021205;28;20209;-78
2021/03/10 06:13:48;;;;;;;78.23;43.23;;;4.90;99.90;;;;;;5018869;28;20214;-77
2021/03/10 06:16:21;;;;;;;76.03;43.93;;;4.90;99.90;;;;;;5003143;28;20318;-77
2021/03/10 06:18:47;;;;;;;73.57;42.17;;;4.90;99.90;;;;;;5001896;28;20229;-77
2021/03/10 06:21:15;;;;;;;75.43;45.03;;;4.90;99.90;;;;;;5002728;28;20310;-78
2021/03/10 06:23:52;;;;;;;73.70;42.97;;;4.90;99.90;;;;;;5002985;28;20215;-79
2021/03/10 06:26:21;;;;;;;68.90;40.17;;;4.90;99.90;;;;;;5001607;28;20209;-78
2021/03/10 06:28:47;;;;;;;71.53;41.63;;;4.90;99.90;;;;;;5001704;28;20202;-77
2021/03/10 06:31:19;;;;;;;74.73;42.60;;;5.00;99.90;;;;;;5002201;28;20199;-77
2021/03/10 06:33:57;;;;;;;69.87;40.47;;;5.00;99.90;;;;;;5005832;28;20218;-80
2021/03/10 06:36:25;;;;;;;78.47;44.13;;;5.00;99.90;;;;;;5005863;28;20200;-81
2021/03/10 06:38:52;;;;;;;68.40;41.47;;;5.00;99.90;;;;;;5006417;28;20944;-80
2021/03/10 06:41:29;;;;;;;77.60;42.43;;;5.00;99.90;;;;;;5005269;28;20241;-81
2021/03/10 06:43:55;;;;;;;60.80;40.00;;;5.00;99.90;;;;;;5003827;28;20203;-79
2021/03/10 06:46:22;;;;;;;73.73;41.00;;;5.00;99.90;;;;;;5008056;28;20603;-81
2021/03/10 06:48:57;;;;;;;72.87;41.30;;;5.00;99.90;;;;;;5025538;28;20203;-80
2021/03/10 06:51:26;;;;;;;69.87;41.47;;;5.00;99.90;;;;;;5013933;28;20214;-79
2021/03/10 06:53:52;;;;;;;63.97;37.03;;;5.00;99.90;;;;;;5006519;28;20195;-80
2021/03/10 06:56:21;;;;;;;69.80;42.27;;;5.00;99.90;;;;;;5005920;28;20207;-81
2021/03/10 06:58:59;;;;;;;64.53;39.57;;;5.10;99.90;;;;;;5007115;28;20203;-81
2021/03/10 07:01:27;;;;;;;64.97;40.83;;;5.10;99.90;;;;;;5004836;28;20230;-80
2021/03/10 07:03:56;;;;;;;61.83;38.63;;;5.10;99.90;;;;;;5006152;28;20221;-80
2021/03/10 07:06:23;;;;;;;70.27;41.57;;;5.10;99.90;;;;;;5004923;28;20210;-81
2021/03/10 07:08:50;;;;;;;63.23;38.93;;;5.20;99.90;;;;;;5004802;28;20206;-80
2021/03/10 07:11:16;;;;;;;64.57;39.03;;;5.20;99.90;;;;;;5003661;28;20223;-81
2021/03/10 07:13:45;;;;;;;63.57;38.73;;;5.20;99.90;;;;;;5016469;28;20619;-81
2021/03/10 07:16:12;;;;;;;66.03;40.43;;;5.20;99.90;;;;;;5015794;28;20211;-80
2021/03/10 07:18:39;;;;;;;66.70;38.17;;;5.30;99.90;;;;;;5002340;28;20218;-81
2021/03/10 07:21:09;;;;;;;63.37;37.90;;;5.30;99.90;;;;;;5003085;28;20313;-81
2021/03/10 07:23:42;;;;;;;60.13;37.57;;;5.30;99.90;;;;;;5003805;28;20506;-80
2021/03/10 07:26:11;;;;;;;63.73;37.43;;;5.30;99.90;;;;;;5005712;28;20195;-81
2021/03/10 07:28:39;;;;;;;63.53;37.77;;;5.40;99.90;;;;;;5004630;28;20234;-82
2021/03/10 07:31:05;;;;;;;65.17;38.17;;;5.40;99.90;;;;;;5005183;28;20629;-79
2021/03/10 07:33:32;;;;;;;54.97;37.20;;;5.40;99.90;;;;;;5013777;28;20240;-81
2021/03/10 07:36:00;;;;;;;65.30;38.20;;;5.50;99.90;;;;;;5057937;22;20236;-82
2021/03/10 07:38:38;;;;;;;55.10;35.60;;;5.50;99.90;;;;;;5064613;28;20209;-80
2021/03/10 07:41:07;;;;;;;63.37;37.13;;;5.50;99.90;;;;;;5065163;28;20224;-81
2021/03/10 07:43:38;;;;;;;58.30;35.33;;;5.50;99.90;;;;;;5064844;28;20484;-80
2021/03/10 07:46:05;;;;;;;54.50;34.37;;;5.60;99.90;;;;;;5065707;28;20209;-81
2021/03/10 07:48:34;;;;;;;52.87;34.53;;;5.60;99.90;;;;;;5064942;28;20209;-81
2021/03/10 07:51:01;;;;;;;58.23;33.83;;;5.60;99.90;;;;;;5071642;28;20200;-81
2021/03/10 07:53:38;;;;;;;55.67;34.83;;;5.70;99.90;;;;;;5084729;28;20208;-81
2021/03/10 07:56:05;;;;;;;57.63;33.97;;;5.70;99.90;;;;;;5074744;28;20213;-80
2021/03/10 07:58:32;;;;;;;52.97;33.03;;;5.70;99.90;;;;;;5063997;28;20208;-79
2021/03/10 08:00:59;;;;;;;48.30;32.50;;;5.70;99.90;;;;;;5082021;28;20225;-81
2021/03/10 08:03:30;;;;;;;52.00;32.80;;;5.80;99.90;;;;;;5083238;28;20200;-79
2021/03/10 08:06:01;;;;;;;49.87;32.90;;;5.80;99.90;;;;;;5066053;28;20555;-80
2021/03/10 08:08:35;;;;;;;54.73;32.70;;;5.80;99.90;;;;;;5063041;28;20197;-80
2021/03/10 08:11:19;;;;;;;51.70;33.03;;;5.90;99.90;;;;;;5080518;28;20208;-81
2021/03/10 08:13:47;;;;;;;50.57;34.10;;;5.90;99.90;;;;;;5081001;28;20204;-78
2021/03/10 08:16:13;;;;;;;48.73;32.73;;;5.90;99.90;;;;;;5083499;28;20243;-79
2021/03/10 08:22:08;;;;;;;49.40;30.77;;;6.00;99.90;;;;;;4981022;28;20668;-80
2021/03/10 08:24:35;;;;;;;50.30;31.23;;;6.10;99.90;;;;;;5064759;28;20209;-81
2021/03/10 08:27:03;;;;;;;52.47;30.53;;;6.20;99.90;;;;;;5065386;28;20212;-81
2021/03/10 08:29:31;;;;;;;47.87;30.53;;;6.20;99.90;;;;;;5079640;28;20212;-81
2021/03/10 08:31:58;;;;;;;52.90;31.70;;;6.20;99.90;;;;;;5083146;28;20227;-81
2021/03/10 08:34:32;;;;;;;47.40;30.70;;;6.20;99.90;;;;;;5064272;28;20255;-80
2021/03/10 08:36:59;;;;;;;46.63;31.17;;;6.30;99.90;;;;;;5065358;28;20247;-79
2021/03/10 08:39:28;;;;;;;49.57;29.03;;;6.30;99.90;;;;;;5073847;28;20983;-81
2021/03/10 08:41:57;;;;;;;49.47;30.13;;;6.30;99.90;;;;;;5067717;28;20244;-81
2021/03/10 08:44:24;;;;;;;51.40;30.67;;;6.30;99.90;;;;;;5074521;28;20213;-81
2021/03/10 08:46:52;;;;;;;44.37;29.57;;;6.30;99.90;;;;;;5087373;28;20220;-80
2021/03/10 08:49:24;;;;;;;45.60;29.47;;;6.40;99.90;;;;;;5073941;28;20202;-82
2021/03/10 08:52:01;;;;;;;44.10;28.70;;;6.40;99.90;;;;;;5067380;28;20600;-81
2021/03/10 08:54:28;;;;;;;42.23;27.90;;;6.40;99.90;;;;;;5065855;28;20204;-80
2021/03/10 08:56:54;;;;;;;45.47;28.17;;;6.50;99.90;;;;;;5088747;28;20200;-81
2021/03/10 08:59:21;;;;;;;43.07;27.90;;;6.50;99.90;;;;;;5088515;28;20201;-81
2021/03/10 09:01:49;;;;;;;48.90;29.50;;;6.50;99.90;;;;;;5087551;28;20232;-80
2021/03/10 09:04:23;;;;;;;51.63;29.67;;;6.50;99.90;;;;;;5088464;28;20284;-81
2021/03/10 09:06:50;;;;;;;43.73;29.50;;;6.60;99.90;;;;;;5079544;28;20185;-81
2021/03/10 09:09:17;;;;;;;43.67;29.37;;;6.60;99.90;;;;;;5067119;28;20201;-80
2021/03/10 09:11:44;;;;;;;43.07;28.73;;;6.60;99.90;;;;;;5073210;28;20231;-80
2021/03/10 09:14:12;;;;;;;42.07;28.10;;;6.70;99.90;;;;;;5067222;28;20720;-82
2021/03/10 09:16:52;;;;;;;42.43;29.20;;;6.70;99.90;;;;;;5064451;28;20205;-78
2021/03/10 09:19:29;;;;;;;40.30;27.63;;;6.80;99.90;;;;;;5066193;28;20189;-76
2021/03/10 09:22:07;;;;;;;44.43;28.67;;;6.90;99.90;;;;;;5066022;28;20266;-78
2021/03/10 09:24:33;;;;;;;41.33;27.57;;;6.90;99.90;;;;;;5065454;28;20207;-78
2021/03/10 09:27:00;;;;;;;39.97;28.23;;;6.90;99.90;;;;;;5067091;28;20537;-82
2021/03/10 09:29:26;;;;;;;41.07;28.80;;;7.00;99.90;;;;;;5066911;28;20778;-79
2021/03/10 09:31:54;;;;;;;41.20;28.10;;;7.00;99.90;;;;;;5057532;22;20328;-80
2021/03/10 09:34:22;;;;;;;39.17;26.90;;;7.10;99.90;;;;;;5035301;28;20213;-79
2021/03/10 09:36:49;;;;;;;40.17;27.07;;;7.10;99.90;;;;;;5026878;28;20199;-80
2021/03/10 09:39:15;;;;;;;40.13;27.37;;;7.20;99.90;;;;;;5027914;28;20213;-81
2021/03/10 09:41:47;;;;;;;40.33;26.73;;;7.20;99.90;;;;;;5026815;28;20288;-80
2021/03/10 09:44:14;;;;;;;47.27;28.97;;;7.30;99.90;;;;;;5026313;28;20219;-79
2021/03/10 09:46:42;;;;;;;39.43;27.53;;;7.40;99.90;;;;;;5026398;28;20218;-81
2021/03/10 09:49:08;;;;;;;43.40;27.17;;;7.50;99.90;;;;;;5017015;28;20859;-81
2021/03/10 09:51:45;;;;;;;38.73;26.93;;;7.50;99.90;;;;;;5023632;28;20531;-80
2021/03/10 09:54:11;;;;;;;41.93;27.63;;;7.60;99.90;;;;;;5023442;28;20187;-76
2021/03/10 09:56:48;;;;;;;40.17;26.93;;;7.60;99.90;;;;;;5023096;28;20214;-74
2021/03/10 09:59:15;;;;;;;40.13;26.50;;;7.60;99.90;;;;;;5022743;28;20213;-76
2021/03/10 10:01:45;;;;;;;37.50;26.63;;;7.70;99.90;;;;;;5022561;28;20365;-76
2021/03/10 10:04:14;;;;;;;40.13;25.00;;;7.70;99.90;;;;;;5023133;28;20218;-76
2021/03/10 10:06:50;;;;;;;38.73;26.47;;;7.70;99.90;;;;;;5021987;28;20203;-75
2021/03/10 10:09:16;;;;;;;37.70;26.27;;;7.80;99.90;;;;;;5025050;28;20213;-73
2021/03/10 10:11:42;;;;;;;35.90;25.50;;;7.80;99.90;;;;;;5041216;28;20260;-75
2021/03/10 10:14:08;;;;;;;41.03;25.13;;;7.90;99.90;;;;;;5042287;28;20198;-75
2021/03/10 10:16:37;;;;;;;38.23;24.67;;;7.90;99.90;;;;;;5030834;28;20288;-75
2021/03/10 10:19:03;;;;;;;34.03;24.27;;;7.90;99.90;;;;;;5022254;28;20218;-75
2021/03/10 10:21:30;;;;;;;37.43;25.43;;;8.00;99.90;;;;;;5022050;28;20222;-75
2021/03/10 10:23:57;;;;;;;32.57;23.90;;;8.10;99.90;;;;;;5022788;28;20261;-74
2021/03/10 10:26:23;;;;;;;38.37;24.93;;;8.10;99.90;;;;;;5021410;28;20221;-76
2021/03/10 10:28:49;;;;;;;36.07;23.60;;;8.10;99.90;;;;;;5021918;28;20273;-77
2021/03/10 10:31:15;;;;;;;35.70;23.37;;;8.20;99.90;;;;;;5021858;28;20293;-76
2021/03/10 10:33:42;;;;;;;34.17;23.27;;;8.30;99.90;;;;;;5021034;28;20292;-80
2021/03/10 10:36:09;;;;;;;35.77;22.73;;;8.30;99.90;;;;;;5022437;28;20210;-78
2021/03/10 10:38:35;;;;;;;34.30;24.70;;;8.40;99.90;;;;;;5022072;28;20614;-77
2021/03/10 10:41:01;;;;;;;34.30;23.57;;;8.40;99.90;;;;;;5021716;28;20218;-76
2021/03/10 10:43:31;;;;;;;29.50;22.10;;;8.40;99.90;;;;;;5021519;28;20202;-76
2021/03/10 10:45:57;;;;;;;33.10;21.73;;;8.50;99.90;;;;;;5022494;28;20213;-75
2021/03/10 10:48:24;;;;;;;30.53;21.00;;;8.60;99.90;;;;;;5022226;28;20211;-76
2021/03/10 10:50:51;;;;;;;31.07;21.37;;;8.70;99.90;;;;;;5021942;28;20195;-74
2021/03/10 10:53:17;;;;;;;32.40;21.97;;;8.80;99.90;;;;;;5021617;28;20535;-77
2021/03/10 10:55:44;;;;;;;28.60;21.33;;;8.80;99.90;;;;;;5024213;28;20238;-76
2021/03/10 10:58:10;;;;;;;32.50;20.23;;;8.90;99.90;;;;;;5029516;28;20883;-78
2021/03/10 11:00:36;;;;;;;31.60;20.10;;;9.00;99.90;;;;;;5039942;28;20228;-78
2021/03/10 11:03:03;;;;;;;28.80;19.70;;;9.10;99.90;;;;;;5042297;28;20202;-79
2021/03/10 11:05:30;;;;;;;30.60;20.83;;;9.10;99.90;;;;;;5038247;28;20208;-80
2021/03/10 11:07:57;;;;;;;28.17;19.17;;;9.20;99.90;;;;;;5022214;28;20198;-79
2021/03/10 11:10:24;;;;;;;36.27;20.97;;;9.20;99.90;;;;;;5029306;28;20222;-81
2021/03/10 11:12:51;;;;;;;27.65;20.90;;;9.20;99.90;;;;;;5025410;28;20449;-81
2021/03/10 11:15:17;;;;;;;27.23;18.33;;;9.30;99.90;;;;;;5028010;28;20216;-82
2021/03/10 11:17:43;;;;;;;30.20;20.67;;;9.30;99.90;;;;;;5044766;28;20202;-82
2021/03/10 11:20:16;;;;;;;30.93;19.57;;;9.40;99.90;;;;;;5042040;28;20206;-84
2021/03/10 11:22:42;;;;;;;29.67;20.47;;;9.40;99.90;;;;;;5037548;28;20610;-83
2021/03/10 11:25:11;;;;;;;26.63;19.40;;;9.50;99.90;;;;;;5019976;28;20248;-81
2021/03/10 11:27:38;;;;;;;26.67;19.63;;;9.60;99.90;;;;;;5041758;28;20233;-80
2021/03/10 11:30:06;;;;;;;25.63;18.93;;;9.70;99.90;;;;;;5041639;28;20205;-80
2021/03/10 11:32:32;;;;;;;27.93;20.33;;;9.80;99.90;;;;;;5036249;28;20856;-76
2021/03/10 11:34:58;;;;;;;26.77;19.60;;;9.80;99.90;;;;;;5039736;28;20676;-82
2021/03/10 11:37:26;;;;;;;27.23;20.13;;;9.90;99.90;;;;;;5043209;28;20218;-80
2021/03/10 11:39:54;;;;;;;27.30;19.40;;;9.90;99.90;;;;;;5041958;28;20665;-77
2021/03/10 11:42:21;;;;;;;27.87;20.60;;;10.00;99.90;;;;;;5033064;28;20842;-75
2021/03/10 11:44:47;;;;;;;27.90;19.87;;;10.10;99.90;;;;;;5021758;28;20878;-83
2021/03/10 11:47:14;;;;;;;29.73;20.57;;;10.20;99.90;;;;;;5022934;28;20226;-77
2021/03/10 11:49:40;;;;;;;27.10;19.73;;;10.20;99.90;;;;;;5020419;28;20662;-78
2021/03/10 11:52:07;;;;;;;26.77;19.80;;;10.20;99.90;;;;;;5022699;28;20209;-78
2021/03/10 11:54:33;;;;;;;28.47;18.07;;;10.30;99.90;;;;;;5021490;28;20272;-78
2021/03/10 11:57:00;;;;;;;27.57;19.57;;;10.30;99.90;;;;;;5021521;28;20333;-77
2021/03/10 11:59:27;;;;;;;27.33;19.33;;;10.30;99.90;;;;;;5021186;28;20190;-77
2021/03/10 12:01:53;;;;;;;24.13;18.63;;;10.20;99.90;;;;;;5022527;28;20272;-78
2021/03/10 12:04:19;;;;;;;28.07;19.90;;;10.20;99.90;;;;;;5035901;28;20229;-78
2021/03/10 12:06:45;;;;;;;24.50;18.20;;;10.30;99.90;;;;;;5036459;28;20821;-77
2021/03/10 12:09:12;;;;;;;25.80;18.67;;;10.40;99.90;;;;;;5041156;28;20206;-78
2021/03/10 12:11:38;;;;;;;25.10;17.70;;;10.40;99.90;;;;;;5041965;28;20206;-77
2021/03/10 12:14:04;;;;;;;25.33;17.43;;;10.50;99.90;;;;;;5043108;28;20301;-88
2021/03/10 12:16:31;;;;;;;23.93;18.33;;;10.40;99.90;;;;;;5029580;28;20210;-83
2021/03/10 12:18:58;;;;;;;27.07;19.03;;;10.30;99.90;;;;;;5030164;28;20202;-78
2021/03/10 12:21:24;;;;;;;25.27;18.27;;;10.30;99.90;;;;;;5032680;28;20261;-81
2021/03/10 12:23:50;;;;;;;25.80;17.70;;;10.20;99.90;;;;;;5033985;28;20210;-80
2021/03/10 12:26:16;;;;;;;23.87;17.73;;;10.20;99.90;;;;;;5036029;28;20692;-82
2021/03/10 12:28:43;;;;;;;21.63;16.83;;;10.10;99.90;;;;;;5046392;28;20570;-83
2021/03/10 12:31:09;;;;;;;22.70;15.77;;;10.20;99.90;;;;;;5033166;28;20265;-78
2021/03/10 12:33:36;;;;;;;20.50;16.33;;;10.10;99.90;;;;;;5024295;28;20548;-77
2021/03/10 12:36:03;;;;;;;22.63;16.23;;;10.10;99.90;;;;;;5026778;28;20228;-83
2021/03/10 12:38:30;;;;;;;26.53;17.57;;;10.10;99.90;;;;;;5028676;28;20214;-77
2021/03/10 12:40:56;;;;;;;23.00;16.37;;;10.10;99.90;;;;;;5029654;28;20221;-78
2021/03/10 12:43:22;;;;;;;26.07;17.07;;;10.10;99.90;;;;;;5042901;28;20204;-78